createdAt,value
2023-02-27T00:00:22.859Z,14.60
2023-02-27T00:02:51.677Z,13.10
2023-02-27T00:05:19.599Z,13.90
2023-02-27T00:07:46.584Z,14.20
2023-02-27T00:10:14.408Z,14.10
2023-02-27T00:12:42.430Z,14.60
2023-02-27T00:15:18.394Z,13.90
2023-02-27T00:17:45.738Z,16.10
2023-02-27T00:20:16.801Z,17.10
2023-02-27T00:22:45.058Z,15.70
2023-02-27T00:25:12.772Z,14.20
2023-02-27T00:27:40.094Z,12.90
2023-02-27T00:30:09.754Z,12.50
2023-02-27T00:32:36.995Z,11.40
2023-02-27T00:35:05.847Z,12.30
2023-02-27T00:37:32.804Z,11.90
2023-02-27T00:39:59.744Z,11.90
2023-02-27T00:42:28.439Z,12.70
2023-02-27T00:44:55.296Z,12.50
2023-02-27T00:47:22.337Z,13.80
2023-02-27T00:49:49.185Z,15.50
2023-02-27T00:52:16.247Z,15.60
2023-02-27T00:54:43.095Z,17.60
2023-02-27T00:57:09.971Z,16.80
2023-02-27T00:59:38.136Z,13.70
2023-02-27T01:02:05.164Z,13.50
2023-02-27T01:04:33.244Z,13.50
2023-02-27T01:07:00.402Z,13.20
2023-02-27T01:09:27.460Z,13.90
2023-02-27T01:11:54.414Z,15.00
2023-02-27T01:14:21.767Z,13.10
2023-02-27T01:16:49.638Z,13.80
2023-02-27T01:19:16.791Z,14.10
2023-02-27T01:21:44.566Z,14.20
2023-02-27T01:24:12.852Z,12.60
2023-02-27T01:26:40.818Z,12.90
2023-02-27T01:29:07.869Z,13.30
2023-02-27T01:31:35.167Z,13.80
2023-02-27T01:34:02.592Z,13.60
2023-02-27T01:36:29.541Z,14.00
2023-02-27T01:38:56.487Z,13.10
2023-02-27T01:41:23.441Z,13.30
2023-02-27T01:44:07.070Z,13.10
2023-02-27T01:46:37.614Z,13.00
2023-02-27T01:49:24.315Z,12.40
2023-02-27T01:52:06.195Z,13.60
2023-02-27T01:54:38.163Z,12.60
2023-02-27T01:57:06.875Z,10.80
2023-02-27T01:59:36.074Z,10.80
2023-02-27T02:02:09.411Z,10.40
2023-02-27T02:04:39.575Z,10.00
2023-02-27T02:07:10.209Z,9.80
2023-02-27T02:09:45.760Z,11.10
2023-02-27T02:12:15.363Z,8.70
2023-02-27T02:14:44.006Z,8.00
2023-02-27T02:17:29.322Z,9.10
2023-02-27T02:19:56.172Z,8.00
2023-02-27T02:22:27.214Z,8.40
2023-02-27T02:25:15.753Z,8.10
2023-02-27T02:27:53.349Z,7.40
2023-02-27T02:30:51.491Z,7.50
2023-02-27T02:34:05.332Z,7.90
2023-02-27T02:36:44.456Z,7.30
2023-02-27T02:44:40.408Z,7.10
2023-02-27T02:47:10.656Z,6.70
2023-02-27T02:49:58.222Z,7.50
2023-02-27T02:52:34.211Z,7.60
2023-02-27T02:55:09.257Z,7.70
2023-02-27T02:57:47.355Z,6.90
2023-02-27T03:00:25.420Z,7.40
2023-02-27T03:02:59.576Z,6.70
2023-02-27T03:05:35.115Z,6.90
2023-02-27T03:08:16.299Z,7.10
2023-02-27T03:10:49.920Z,7.10
2023-02-27T03:13:37.824Z,7.90
2023-02-27T03:17:14.302Z,7.70
2023-02-27T03:19:56.818Z,7.20
2023-02-27T03:22:38.617Z,8.00
2023-02-27T03:25:10.660Z,7.80
2023-02-27T03:28:11.288Z,8.10
2023-02-27T03:30:45.177Z,9.50
2023-02-27T03:33:30.294Z,9.50
2023-02-27T03:36:08.048Z,8.70
2023-02-27T03:38:57.754Z,8.30
2023-02-27T03:41:42.885Z,7.40
2023-02-27T03:44:34.042Z,6.20
2023-02-27T03:47:01.049Z,4.80
2023-02-27T03:49:28.468Z,5.10
2023-02-27T03:51:55.407Z,4.30
2023-02-27T03:54:27.997Z,3.50
2023-02-27T03:57:04.480Z,3.30
2023-02-27T03:59:32.844Z,2.80
2023-02-27T04:02:02.096Z,3.10
2023-02-27T04:04:32.179Z,3.40
2023-02-27T04:07:35.977Z,3.10
2023-02-27T04:10:24.529Z,2.90
2023-02-27T04:13:16.546Z,3.10
2023-02-27T04:15:55.324Z,2.40
2023-02-27T04:18:27.992Z,3.00
2023-02-27T04:21:06.419Z,2.70
2023-02-27T04:23:51.683Z,3.30
2023-02-27T04:26:30.618Z,3.00
2023-02-27T04:29:15.427Z,3.30
2023-02-27T04:31:47.221Z,3.50
2023-02-27T04:34:28.349Z,2.80
2023-02-27T04:36:59.044Z,3.00
2023-02-27T04:39:33.119Z,3.20
2023-02-27T04:42:13.420Z,3.00
2023-02-27T04:44:42.087Z,3.10
2023-02-27T04:47:11.531Z,2.90
2023-02-27T04:49:46.043Z,2.80
2023-02-27T04:52:24.960Z,2.70
2023-02-27T04:55:00.193Z,3.20
2023-02-27T04:57:43.195Z,3.70
2023-02-27T05:00:14.111Z,4.80
2023-02-27T05:02:47.995Z,4.40
2023-02-27T05:05:22.350Z,3.80
2023-02-27T05:07:57.007Z,3.70
2023-02-27T05:10:36.261Z,4.00
2023-02-27T05:13:22.761Z,3.20
2023-02-27T05:17:44.792Z,4.40
2023-02-27T05:20:13.461Z,7.40
2023-02-27T05:22:56.681Z,5.10
2023-02-27T05:25:41.491Z,8.40
2023-02-27T05:28:17.038Z,16.50
2023-02-27T05:30:59.591Z,18.60
2023-02-27T05:33:43.945Z,13.30
2023-02-27T05:36:25.112Z,6.00
2023-02-27T05:38:58.566Z,5.80
2023-02-27T05:41:32.053Z,5.80
2023-02-27T05:44:10.729Z,5.70
2023-02-27T05:46:41.871Z,7.10
2023-02-27T05:49:33.995Z,8.40
2023-02-27T05:52:05.200Z,10.60
2023-02-27T05:54:35.162Z,10.70
2023-02-27T05:57:05.768Z,11.00
2023-02-27T05:59:47.380Z,9.20
2023-02-27T06:02:14.571Z,7.70
2023-02-27T06:04:41.907Z,4.50
2023-02-27T06:07:09.463Z,5.60
2023-02-27T06:09:36.628Z,3.90
2023-02-27T06:12:03.570Z,3.70
2023-02-27T06:14:30.523Z,2.60
2023-02-27T06:16:57.474Z,3.50
2023-02-27T06:19:24.843Z,2.60
2023-02-27T06:21:51.792Z,2.20
2023-02-27T06:24:19.382Z,3.00
2023-02-27T06:26:47.529Z,2.80
2023-02-27T06:29:14.785Z,2.80
2023-02-27T06:31:41.728Z,2.60
2023-02-27T06:34:08.680Z,4.30
2023-02-27T06:36:35.532Z,2.70
2023-02-27T06:39:02.482Z,3.20
2023-02-27T06:41:29.336Z,2.50
2023-02-27T06:43:56.785Z,2.20
2023-02-27T06:46:24.564Z,1.70
2023-02-27T06:48:51.610Z,2.30
2023-02-27T06:51:18.456Z,2.40
2023-02-27T06:53:45.307Z,2.70
2023-02-27T06:56:12.158Z,3.30
2023-02-27T06:58:39.102Z,3.10
2023-02-27T07:01:06.070Z,4.10
2023-02-27T07:03:33.784Z,2.90
2023-02-27T07:06:00.771Z,3.60
2023-02-27T07:08:27.727Z,4.00
2023-02-27T07:10:54.671Z,3.10
2023-02-27T07:13:21.621Z,3.90
2023-02-27T07:15:48.601Z,2.70
2023-02-27T07:18:15.525Z,2.00
2023-02-27T07:20:43.098Z,4.00
2023-02-27T07:23:10.976Z,2.30
2023-02-27T07:25:37.910Z,1.50
2023-02-27T07:28:05.328Z,2.60
2023-02-27T07:30:32.323Z,4.60
2023-02-27T07:32:59.282Z,11.80
2023-02-27T07:35:26.219Z,4.80
2023-02-27T07:37:53.173Z,4.80
2023-02-27T07:40:20.135Z,3.50
2023-02-27T07:42:52.996Z,2.50
2023-02-27T07:45:20.186Z,3.60
2023-02-27T07:47:47.129Z,2.90
2023-02-27T07:50:16.939Z,2.90
2023-02-27T07:52:44.619Z,2.60
2023-02-27T07:55:13.229Z,3.40
2023-02-27T07:57:40.144Z,2.80
2023-02-27T08:00:09.929Z,3.10
2023-02-27T08:02:40.325Z,2.20
2023-02-27T08:05:10.999Z,1.70
2023-02-27T08:07:37.991Z,8.20
2023-02-27T08:10:06.218Z,5.60
2023-02-27T08:12:33.619Z,8.20
2023-02-27T08:15:00.685Z,6.30
2023-02-27T08:17:27.628Z,3.10
2023-02-27T08:19:54.576Z,6.00
2023-02-27T08:22:21.824Z,10.30
2023-02-27T08:24:48.678Z,4.30
2023-02-27T08:27:15.542Z,7.90
2023-02-27T08:29:43.700Z,6.00
2023-02-27T08:32:10.995Z,2.20
2023-02-27T08:34:38.009Z,2.40
2023-02-27T08:37:04.959Z,3.10
2023-02-27T08:39:32.125Z,3.50
2023-02-27T08:41:58.957Z,1.80
2023-02-27T08:44:25.750Z,2.70
2023-02-27T08:46:52.666Z,2.00
2023-02-27T08:49:25.240Z,3.70
2023-02-27T08:54:19.857Z,7.00
2023-02-27T08:56:48.029Z,8.80
2023-02-27T08:59:15.592Z,1.80
2023-02-27T09:01:42.853Z,7.70
2023-02-27T09:04:10.022Z,4.90
2023-02-27T09:06:37.685Z,3.20
2023-02-27T09:09:06.760Z,2.60
2023-02-27T09:11:34.241Z,5.40
2023-02-27T09:14:01.310Z,3.40
2023-02-27T09:16:28.683Z,3.20
2023-02-27T09:18:55.940Z,3.40
2023-02-27T09:21:23.987Z,2.30
2023-02-27T09:23:53.283Z,2.40
2023-02-27T09:26:21.681Z,1.40
2023-02-27T09:28:50.269Z,1.80
2023-02-27T09:31:18.001Z,2.70
2023-02-27T09:33:45.087Z,5.40
2023-02-27T09:36:12.461Z,8.40
2023-02-27T09:38:41.318Z,7.30
2023-02-27T09:41:27.519Z,2.60
2023-02-27T09:43:54.987Z,1.80
2023-02-27T09:46:25.823Z,1.90
2023-02-27T09:49:01.437Z,1.60
2023-02-27T09:51:29.922Z,1.90
2023-02-27T09:54:02.439Z,1.20
2023-02-27T09:56:40.751Z,1.70
2023-02-27T09:59:36.276Z,2.30
2023-02-27T10:02:08.753Z,2.60
2023-02-27T10:05:04.838Z,3.20
2023-02-27T10:07:53.178Z,2.50
2023-02-27T10:10:37.736Z,4.70
2023-02-27T10:13:28.847Z,8.70
2023-02-27T10:15:57.405Z,12.10
2023-02-27T10:18:33.645Z,7.50
2023-02-27T10:21:06.987Z,10.00
2023-02-27T10:23:56.753Z,8.60
2023-02-27T10:26:31.368Z,5.00
2023-02-27T10:29:02.943Z,3.70
2023-02-27T10:31:33.904Z,3.00
2023-02-27T10:34:01.958Z,3.10
2023-02-27T10:36:34.166Z,3.90
2023-02-27T10:39:07.047Z,4.00
2023-02-27T10:41:36.647Z,2.60
2023-02-27T10:44:04.103Z,2.50
2023-02-27T10:46:35.963Z,3.10
2023-02-27T10:49:13.792Z,2.60
2023-02-27T10:51:40.908Z,1.80
2023-02-27T10:54:19.919Z,2.20
2023-02-27T10:56:56.850Z,2.40
2023-02-27T10:59:38.744Z,4.00
2023-02-27T11:02:18.034Z,3.40
2023-02-27T11:04:55.413Z,4.50
2023-02-27T11:07:36.540Z,4.40
2023-02-27T11:10:15.807Z,4.90
2023-02-27T11:12:57.201Z,5.20
2023-02-27T11:15:27.313Z,9.50
2023-02-27T11:17:55.392Z,9.20
2023-02-27T11:20:39.741Z,11.70
2023-02-27T11:23:18.268Z,17.50
2023-02-27T11:25:45.377Z,6.50
2023-02-27T11:28:14.245Z,6.10
2023-02-27T11:30:43.954Z,3.60
2023-02-27T11:33:19.199Z,3.50
2023-02-27T11:35:57.856Z,6.50
2023-02-27T11:38:31.551Z,4.20
2023-02-27T11:41:04.453Z,5.50
2023-02-27T11:43:49.428Z,3.50
2023-02-27T11:46:47.295Z,3.80
2023-02-27T11:49:35.139Z,4.70
2023-02-27T11:52:17.887Z,24.30
2023-02-27T11:54:58.102Z,10.10
2023-02-27T11:57:39.566Z,9.60
2023-02-27T12:00:20.023Z,8.00
2023-02-27T12:02:56.051Z,3.80
2023-02-27T12:05:30.871Z,4.70
2023-02-27T12:08:05.991Z,14.70
2023-02-27T12:10:48.556Z,15.10
2023-02-27T12:13:21.660Z,8.40
2023-02-27T12:16:09.261Z,11.20
2023-02-27T12:18:45.140Z,9.90
2023-02-27T12:21:16.875Z,3.50
2023-02-27T12:23:50.051Z,7.50
2023-02-27T12:26:30.002Z,7.60
2023-02-27T12:29:09.608Z,19.60
2023-02-27T12:31:45.016Z,17.00
2023-02-27T12:34:12.268Z,6.00
2023-02-27T12:36:39.401Z,3.30
2023-02-27T12:39:15.440Z,6.10
2023-02-27T12:42:20.697Z,4.00
2023-02-27T12:44:56.541Z,4.80
2023-02-27T12:47:28.906Z,6.50
2023-02-27T12:50:24.201Z,5.30
2023-02-27T12:53:10.092Z,4.10
2023-02-27T12:55:49.736Z,3.70
2023-02-27T12:58:38.589Z,3.20
2023-02-27T13:01:22.095Z,3.30
2023-02-27T13:03:59.814Z,4.50
2023-02-27T13:07:05.880Z,6.00
2023-02-27T13:09:56.195Z,18.70
2023-02-27T13:12:48.521Z,4.80
2023-02-27T13:15:15.434Z,4.00
2023-02-27T13:17:55.124Z,5.90
2023-02-27T13:20:21.924Z,4.60
2023-02-27T13:22:53.374Z,4.70
2023-02-27T13:25:21.466Z,5.50
2023-02-27T13:27:54.313Z,4.70
2023-02-27T13:30:27.743Z,4.70
2023-02-27T13:33:16.180Z,4.90
2023-02-27T13:35:46.102Z,4.20
2023-02-27T13:41:28.433Z,5.70
2023-02-27T13:43:57.196Z,5.40
2023-02-27T13:46:31.776Z,6.20
2023-02-27T13:49:05.092Z,6.30
2023-02-27T13:51:35.116Z,5.70
2023-02-27T13:54:14.545Z,4.70
2023-02-27T13:57:07.700Z,5.90
2023-02-27T13:59:42.456Z,5.30
2023-02-27T14:02:12.638Z,7.90
2023-02-27T14:04:49.705Z,7.90
2023-02-27T14:07:26.705Z,8.30
2023-02-27T14:10:11.682Z,8.90
2023-02-27T14:12:46.399Z,6.00
2023-02-27T14:15:23.048Z,5.70
2023-02-27T14:18:09.276Z,5.50
2023-02-27T14:20:39.414Z,5.20
2023-02-27T14:23:15.230Z,5.30
2023-02-27T14:25:51.698Z,4.90
2023-02-27T14:28:44.742Z,5.30
2023-02-27T14:31:28.789Z,5.40
2023-02-27T14:34:05.247Z,5.20
2023-02-27T14:36:39.775Z,6.80
2023-02-27T14:39:07.037Z,9.70
2023-02-27T14:42:02.037Z,8.00
2023-02-27T14:44:37.671Z,36.10
2023-02-27T14:47:05.953Z,47.90
2023-02-27T14:49:36.218Z,12.60
2023-02-27T14:52:22.040Z,6.30
2023-02-27T14:54:50.451Z,5.50
2023-02-27T14:57:26.681Z,4.60
2023-02-27T14:59:55.221Z,7.70
2023-02-27T15:02:25.117Z,11.10
2023-02-27T15:05:01.408Z,10.60
2023-02-27T15:07:34.270Z,7.10
2023-02-27T15:10:05.178Z,7.70
2023-02-27T15:12:37.889Z,7.30
2023-02-27T15:15:10.366Z,11.70
2023-02-27T15:17:40.700Z,8.70
2023-02-27T15:20:38.254Z,8.90
2023-02-27T15:23:28.831Z,7.10
2023-02-27T15:25:58.445Z,9.30
2023-02-27T15:28:37.775Z,8.30
2023-02-27T15:31:07.479Z,6.30
2023-02-27T15:33:34.757Z,6.20
2023-02-27T15:36:02.218Z,6.60
2023-02-27T15:38:31.218Z,8.10
2023-02-27T15:41:00.008Z,12.30
2023-02-27T15:43:28.957Z,13.90
2023-02-27T15:45:58.497Z,10.80
2023-02-27T15:48:26.287Z,12.00
2023-02-27T15:51:02.391Z,11.70
2023-02-27T15:53:34.189Z,12.10
2023-02-27T15:56:06.373Z,23.20
2023-02-27T15:58:46.993Z,16.40
2023-02-27T16:01:19.930Z,5.80
2023-02-27T16:03:49.662Z,7.00
2023-02-27T16:06:20.635Z,8.80
2023-02-27T16:09:01.536Z,8.50
2023-02-27T16:11:31.435Z,8.30
2023-02-27T16:13:58.506Z,8.30
2023-02-27T16:16:36.436Z,9.50
2023-02-27T16:19:22.745Z,12.40
2023-02-27T16:22:16.677Z,13.30
2023-02-27T16:24:44.662Z,18.00
2023-02-27T16:27:16.957Z,21.00
2023-02-27T16:29:45.612Z,20.10
2023-02-27T16:32:32.797Z,59.40
2023-02-27T16:35:08.353Z,29.20
2023-02-27T16:37:38.375Z,24.60
2023-02-27T16:40:22.989Z,25.10
2023-02-27T16:42:51.429Z,32.30
2023-02-27T16:45:21.995Z,16.30
2023-02-27T16:47:50.547Z,8.20
2023-02-27T16:50:41.530Z,4.70
2023-02-27T16:53:09.194Z,7.00
2023-02-27T16:55:40.153Z,8.60
2023-02-27T16:58:07.314Z,4.30
2023-02-27T17:00:35.292Z,4.60
2023-02-27T17:03:02.438Z,3.80
2023-02-27T17:05:29.582Z,9.70
2023-02-27T17:07:56.549Z,15.60
2023-02-27T17:10:24.813Z,10.20
2023-02-27T17:12:52.361Z,8.50
2023-02-27T17:15:20.381Z,8.50
2023-02-27T17:17:47.409Z,9.30
2023-02-27T17:20:15.237Z,12.80
2023-02-27T17:22:44.427Z,14.00
2023-02-27T17:25:12.564Z,14.70
2023-02-27T17:27:41.756Z,12.90
2023-02-27T17:30:09.753Z,9.60
2023-02-27T17:32:36.891Z,9.80
2023-02-27T17:35:04.555Z,9.20
2023-02-27T17:37:31.821Z,10.70
2023-02-27T17:39:59.052Z,22.40
2023-02-27T17:42:26.435Z,28.80
2023-02-27T17:44:53.890Z,19.30
2023-02-27T17:47:21.169Z,15.20
2023-02-27T17:49:48.554Z,14.10
2023-02-27T17:52:15.973Z,18.90
2023-02-27T17:54:43.046Z,16.30
2023-02-27T17:57:12.240Z,11.60
2023-02-27T17:59:40.777Z,7.70
2023-02-27T18:02:10.325Z,9.00
2023-02-27T18:04:37.495Z,7.80
2023-02-27T18:07:04.645Z,5.50
2023-02-27T18:09:32.148Z,5.40
2023-02-27T18:11:59.149Z,6.80
2023-02-27T18:14:26.614Z,8.10
2023-02-27T18:16:53.878Z,8.90
2023-02-27T18:19:20.922Z,10.70
2023-02-27T18:21:47.970Z,15.40
2023-02-27T18:24:18.301Z,17.10
2023-02-27T18:26:45.801Z,16.10
2023-02-27T18:29:14.314Z,16.30
2023-02-27T18:31:46.703Z,15.40
2023-02-27T18:34:14.005Z,25.40
2023-02-27T18:36:41.045Z,31.60
2023-02-27T18:39:09.120Z,37.40
2023-02-27T18:41:37.275Z,66.10
2023-02-27T18:44:05.384Z,55.90
2023-02-27T18:46:33.389Z,50.40
2023-02-27T18:49:01.320Z,48.30
2023-02-27T18:51:29.298Z,32.10
2023-02-27T18:53:57.062Z,33.00
2023-02-27T18:56:25.711Z,25.60
2023-02-27T18:58:54.054Z,18.30
2023-02-27T19:01:25.580Z,14.10
2023-02-27T19:04:00.669Z,19.40
2023-02-27T19:06:28.489Z,12.40
2023-02-27T19:08:56.053Z,14.20
2023-02-27T19:11:33.393Z,12.00
2023-02-27T19:14:02.882Z,13.90
2023-02-27T19:16:30.665Z,21.00
2023-02-27T19:19:00.028Z,18.90
2023-02-27T19:21:27.778Z,9.60
2023-02-27T19:23:54.846Z,8.20
2023-02-27T19:26:23.458Z,5.40
2023-02-27T19:28:55.124Z,5.30
2023-02-27T19:31:24.582Z,13.80
2023-02-27T19:33:51.865Z,16.50
2023-02-27T19:36:21.218Z,13.60
2023-02-27T19:38:48.517Z,17.30
2023-02-27T19:41:19.467Z,19.50
2023-02-27T19:43:47.646Z,15.90
2023-02-27T19:46:18.332Z,14.90
2023-02-27T19:48:45.637Z,13.30
2023-02-27T19:51:14.659Z,15.70
2023-02-27T19:53:46.108Z,26.60
2023-02-27T19:56:16.250Z,17.50
2023-02-27T19:58:44.313Z,14.10
2023-02-27T20:01:12.661Z,21.60
2023-02-27T20:03:43.810Z,13.20
2023-02-27T20:06:23.348Z,13.60
2023-02-27T20:08:51.019Z,20.10
2023-02-27T20:11:20.000Z,26.90
2023-02-27T20:13:48.649Z,27.80
2023-02-27T20:16:19.592Z,26.40
2023-02-27T20:18:46.714Z,25.50
2023-02-27T20:21:17.101Z,24.90
2023-02-27T20:23:45.639Z,22.50
2023-02-27T20:26:22.692Z,10.50
2023-02-27T20:28:52.303Z,6.80
2023-02-27T20:31:22.227Z,4.70
2023-02-27T20:33:50.603Z,6.50
2023-02-27T20:36:17.969Z,14.70
2023-02-27T20:38:45.440Z,17.90
2023-02-27T20:41:18.162Z,18.00
2023-02-27T20:43:45.780Z,24.50
2023-02-27T20:46:19.432Z,55.90
2023-02-27T20:48:50.859Z,54.60
2023-02-27T20:51:22.958Z,21.60
2023-02-27T20:53:53.505Z,20.60
2023-02-27T20:56:26.709Z,19.60
2023-02-27T20:58:54.819Z,20.60
2023-02-27T21:01:22.388Z,28.60
2023-02-27T21:03:52.326Z,54.60
2023-02-27T21:06:20.406Z,36.00
2023-02-27T21:08:49.678Z,30.50
2023-02-27T21:11:23.782Z,23.40
2023-02-27T21:13:51.042Z,26.00
2023-02-27T21:16:20.736Z,30.20
2023-02-27T21:21:25.505Z,29.60
2023-02-27T21:23:52.991Z,30.20
2023-02-27T21:26:27.706Z,27.40
2023-02-27T21:29:07.962Z,27.60
2023-02-27T21:31:37.041Z,22.80
2023-02-27T21:34:07.338Z,20.30
2023-02-27T21:36:42.602Z,21.10
2023-02-27T21:39:13.356Z,27.30
2023-02-27T21:41:41.581Z,23.40
2023-02-27T21:44:12.025Z,38.60
2023-02-27T21:46:39.226Z,36.70
2023-02-27T21:49:06.986Z,26.10
2023-02-27T21:51:40.358Z,41.30
2023-02-27T21:54:10.753Z,52.50
2023-02-27T21:59:05.939Z,37.50
2023-02-27T22:01:33.964Z,36.80
2023-02-27T22:04:02.196Z,42.00
2023-02-27T22:06:34.179Z,52.50
2023-02-27T22:09:05.133Z,58.10
2023-02-27T22:11:34.251Z,61.80
2023-02-27T22:14:01.990Z,45.90
2023-02-27T22:16:29.041Z,43.90
2023-02-27T22:18:56.066Z,42.70
2023-02-27T22:21:25.520Z,44.10
2023-02-27T22:23:53.285Z,48.30
2023-02-27T22:26:24.455Z,58.10
2023-02-27T22:28:53.631Z,60.40
2023-02-27T22:31:25.681Z,67.30
2023-02-27T22:33:55.642Z,70.80
2023-02-27T22:36:25.872Z,50.60
2023-02-27T22:38:53.276Z,46.80
2023-02-27T22:41:23.759Z,45.00
2023-02-27T22:43:51.494Z,43.90
2023-02-27T22:46:28.396Z,45.80
2023-02-27T22:49:01.824Z,37.20
2023-02-27T22:51:30.700Z,35.60
2023-02-27T22:54:00.342Z,34.60
2023-02-27T22:56:28.232Z,32.80
2023-02-27T22:58:55.389Z,32.00
2023-02-27T23:01:26.666Z,31.70
2023-02-27T23:03:56.760Z,32.80
2023-02-27T23:06:27.081Z,31.90
2023-02-27T23:08:54.446Z,37.50
2023-02-27T23:11:22.003Z,40.90
2023-02-27T23:13:50.394Z,51.60
2023-02-27T23:16:17.719Z,57.80
2023-02-27T23:18:51.198Z,50.40
2023-02-27T23:21:20.546Z,54.00
2023-02-27T23:23:48.035Z,50.50
2023-02-27T23:26:14.986Z,46.70
2023-02-27T23:28:42.946Z,47.10
2023-02-27T23:31:10.201Z,43.70
2023-02-27T23:33:37.456Z,40.80
2023-02-27T23:36:04.967Z,36.40
2023-02-27T23:38:32.382Z,32.80
2023-02-27T23:41:09.694Z,32.30
2023-02-27T23:43:36.924Z,28.90
2023-02-27T23:46:14.707Z,31.80
2023-02-27T23:48:42.636Z,31.40
2023-02-27T23:51:11.747Z,29.60
2023-02-27T23:53:40.589Z,27.60
2023-02-27T23:56:26.358Z,31.00
2023-02-27T23:58:59.020Z,38.40
